Sainte-Agathe, Canada
Current Conditions -  °F | °C
As of 12:00 PM on Wednesday 26 Nov 2014 (Local Time) from CYMX Reporting Station
Overcast Overcast  
Wind Chill: 30°   Ceiling: 14000
Heat Index: 30°   Visibility: 25mi
Dew Point: 18°   Wind: 3mph
Humidity: 60%   Direction: 30°NNE
Pressure: 30.22"   Gusts: NA
Location:  46.03°N, 74.28°W
Report Text: CYMX 261700Z 03003KT 340V080 25SM FEW035 OVC140 M01/M08 A3022 RMK SC1AS7 SLP237
Loading
Personal Weather Stations






























Interactive Weather Map New forecast layout! Learn more

10-Day Weather Forecast

Advertisements
Track Severe Weather on mobile